createdAt,value
2022-12-11T00:00:15.989Z,5.95
2022-12-11T00:03:19.409Z,8.67
2022-12-11T00:06:23.441Z,7.00
2022-12-11T00:09:26.790Z,6.53
2022-12-11T00:12:32.712Z,5.78
2022-12-11T00:15:35.495Z,6.75
2022-12-11T00:18:38.412Z,7.63
2022-12-11T00:21:41.207Z,6.37
2022-12-11T00:24:43.730Z,6.93
2022-12-11T00:27:47.513Z,8.60
2022-12-11T00:30:50.285Z,7.70
2022-12-11T00:33:53.073Z,7.87
2022-12-11T00:36:55.624Z,6.47
2022-12-11T00:39:58.486Z,6.35
2022-12-11T00:43:01.321Z,7.20
2022-12-11T00:46:04.387Z,6.78
2022-12-11T00:49:07.114Z,6.37
2022-12-11T00:52:10.873Z,9.30
2022-12-11T00:55:13.715Z,8.05
2022-12-11T00:58:16.688Z,9.02
2022-12-11T01:01:23.574Z,6.75
2022-12-11T01:04:27.622Z,8.43
2022-12-11T01:07:30.092Z,9.57
2022-12-11T01:10:34.622Z,10.25
2022-12-11T01:13:38.193Z,10.35
2022-12-11T01:16:41.174Z,11.88
2022-12-11T01:19:43.654Z,8.77
2022-12-11T01:22:48.533Z,11.88
2022-12-11T01:25:51.123Z,10.00
2022-12-11T01:28:53.881Z,9.32
2022-12-11T01:31:56.458Z,9.77
2022-12-11T01:34:59.322Z,10.30
2022-12-11T01:38:01.932Z,10.02
2022-12-11T01:41:04.803Z,11.20
2022-12-11T01:44:28.560Z,9.40
2022-12-11T01:47:31.353Z,9.15
2022-12-11T01:50:38.822Z,8.70
2022-12-11T01:53:45.952Z,10.93
2022-12-11T01:56:50.492Z,11.98
2022-12-11T01:59:53.284Z,8.57
2022-12-11T02:02:55.859Z,10.07
2022-12-11T02:06:00.467Z,8.20
2022-12-11T02:09:05.279Z,10.10
2022-12-11T02:12:34.129Z,8.57
2022-12-11T02:15:59.017Z,7.93
2022-12-11T02:19:10.602Z,9.48
2022-12-11T02:23:00.939Z,11.40
2022-12-11T02:26:37.017Z,8.30
2022-12-11T02:30:02.809Z,9.90
2022-12-11T02:33:07.313Z,8.60
2022-12-11T02:36:10.648Z,9.05
2022-12-11T02:39:15.923Z,9.13
2022-12-11T02:42:20.028Z,8.88
2022-12-11T02:45:23.686Z,7.43
2022-12-11T02:48:26.636Z,9.93
2022-12-11T02:51:32.389Z,7.53
2022-12-11T02:54:36.971Z,6.73
2022-12-11T02:57:44.662Z,9.68
2022-12-11T03:00:47.464Z,6.43
2022-12-11T03:03:50.208Z,6.37
2022-12-11T03:06:55.530Z,7.78
2022-12-11T03:09:58.424Z,6.97
2022-12-11T03:13:01.312Z,8.32
2022-12-11T03:16:36.199Z,7.65
2022-12-11T03:19:43.638Z,7.68
2022-12-11T03:23:08.126Z,5.93
2022-12-11T03:26:12.616Z,8.07
2022-12-11T03:29:20.354Z,8.30
2022-12-11T03:32:25.884Z,6.97
2022-12-11T03:35:39.464Z,5.93
2022-12-11T03:38:54.763Z,7.53
2022-12-11T03:41:58.872Z,6.93
2022-12-11T03:45:02.655Z,6.45
2022-12-11T03:48:07.277Z,7.25
2022-12-11T03:51:10.015Z,7.82
2022-12-11T03:54:13.088Z,8.25
2022-12-11T03:57:17.306Z,6.47
2022-12-11T04:00:21.178Z,6.97
2022-12-11T04:03:24.515Z,7.93
2022-12-11T04:06:27.417Z,5.45
2022-12-11T04:09:30.313Z,7.30
2022-12-11T04:12:33.470Z,6.00
2022-12-11T04:15:36.763Z,6.40
2022-12-11T04:18:57.785Z,7.22
2022-12-11T04:22:19.452Z,4.93
2022-12-11T04:25:21.882Z,5.15
2022-12-11T04:28:25.060Z,5.40
2022-12-11T04:31:29.987Z,6.90
2022-12-11T04:34:32.828Z,6.12
2022-12-11T04:37:36.031Z,5.47
2022-12-11T04:40:38.902Z,5.37
2022-12-11T04:43:41.603Z,5.40
2022-12-11T04:46:44.753Z,4.30
2022-12-11T04:49:47.477Z,4.07
2022-12-11T04:52:50.916Z,5.80
2022-12-11T04:55:53.717Z,5.12
2022-12-11T04:58:56.881Z,4.23
2022-12-11T05:01:59.926Z,5.90
2022-12-11T05:05:07.392Z,5.95
2022-12-11T05:08:10.207Z,4.62
2022-12-11T05:11:15.170Z,4.28
2022-12-11T05:14:18.107Z,4.63
2022-12-11T05:17:21.855Z,4.62
2022-12-11T05:20:24.469Z,4.30
2022-12-11T05:23:28.088Z,3.50
2022-12-11T05:26:30.644Z,5.32
2022-12-11T05:29:33.439Z,3.97
2022-12-11T05:32:36.172Z,4.40
2022-12-11T05:35:48.715Z,3.90
2022-12-11T05:38:52.623Z,4.03
2022-12-11T05:41:55.505Z,5.43
2022-12-11T05:44:58.113Z,5.03
2022-12-11T05:48:01.034Z,5.35
2022-12-11T05:51:04.378Z,3.75
2022-12-11T05:54:07.207Z,6.05
2022-12-11T05:57:09.980Z,4.12
2022-12-11T06:00:13.734Z,5.60
2022-12-11T06:03:16.604Z,4.90
2022-12-11T06:06:19.213Z,4.03
2022-12-11T06:09:22.016Z,6.32
2022-12-11T06:12:24.498Z,4.40
2022-12-11T06:15:27.386Z,5.57
2022-12-11T06:18:30.374Z,5.25
2022-12-11T06:21:33.922Z,5.15
2022-12-11T06:24:36.409Z,5.80
2022-12-11T06:27:39.175Z,5.03
2022-12-11T06:30:42.865Z,5.80
2022-12-11T06:33:45.966Z,5.30
2022-12-11T06:36:48.521Z,4.85
2022-12-11T06:39:51.269Z,7.35
2022-12-11T06:42:54.867Z,6.85
2022-12-11T06:46:03.437Z,5.80
2022-12-11T06:49:06.459Z,6.95
2022-12-11T06:52:12.463Z,5.97
2022-12-11T06:55:17.950Z,5.87
2022-12-11T06:58:20.750Z,5.87
2022-12-11T07:01:25.827Z,6.37
2022-12-11T07:04:30.546Z,6.35
2022-12-11T07:07:33.215Z,6.70
2022-12-11T07:10:39.562Z,8.15
2022-12-11T07:13:42.287Z,7.97
2022-12-11T07:16:45.618Z,7.17
2022-12-11T07:19:48.216Z,6.18
2022-12-11T07:22:51.081Z,9.55
2022-12-11T07:25:54.903Z,8.07
2022-12-11T07:29:00.068Z,10.88
2022-12-11T07:32:02.705Z,7.43
2022-12-11T07:35:06.038Z,7.05
2022-12-11T07:38:08.771Z,6.68
2022-12-11T07:41:13.276Z,6.30
2022-12-11T07:44:15.859Z,7.72
2022-12-11T07:47:18.668Z,9.50
2022-12-11T07:50:22.715Z,7.20
2022-12-11T07:53:25.520Z,8.05
2022-12-11T07:56:29.420Z,8.38
2022-12-11T07:59:33.725Z,6.70
2022-12-11T08:02:37.778Z,7.67
2022-12-11T08:05:40.643Z,8.43
2022-12-11T08:08:43.198Z,7.65
2022-12-11T08:11:51.261Z,7.65
2022-12-11T08:14:53.750Z,8.32
2022-12-11T08:17:56.617Z,9.37
2022-12-11T08:20:59.174Z,8.20
2022-12-11T08:24:02.040Z,8.23
2022-12-11T08:27:04.711Z,7.47
2022-12-11T08:30:08.382Z,11.73
2022-12-11T08:33:10.896Z,8.83
2022-12-11T08:36:16.174Z,7.72
2022-12-11T08:39:19.164Z,10.30
2022-12-11T08:42:22.080Z,9.65
2022-12-11T08:45:24.607Z,15.57
2022-12-11T08:48:27.628Z,70.47
2022-12-11T08:51:31.184Z,41.92
2022-12-11T08:54:34.454Z,14.93
2022-12-11T08:57:39.803Z,11.63
2022-12-11T09:00:42.737Z,9.43
2022-12-11T09:03:45.340Z,12.10
2022-12-11T09:06:48.574Z,8.32
2022-12-11T09:09:51.055Z,10.07
2022-12-11T09:12:53.912Z,12.50
2022-12-11T09:15:56.577Z,11.85
2022-12-11T09:19:00.513Z,18.90
2022-12-11T09:22:03.029Z,25.15
2022-12-11T09:25:06.375Z,19.62
2022-12-11T09:28:08.880Z,30.05
2022-12-11T09:31:14.218Z,14.23
2022-12-11T09:34:16.939Z,9.10
2022-12-11T09:37:19.740Z,9.63
2022-12-11T09:40:22.414Z,7.32
2022-12-11T09:43:32.915Z,8.75
2022-12-11T09:46:36.690Z,9.93
2022-12-11T09:49:41.676Z,9.03
2022-12-11T09:53:22.902Z,8.05
2022-12-11T09:56:28.242Z,8.90
2022-12-11T09:59:51.763Z,8.20
2022-12-11T10:03:21.782Z,10.10
2022-12-11T10:06:42.305Z,9.47
2022-12-11T10:09:57.035Z,7.68
2022-12-11T10:13:06.692Z,7.45
2022-12-11T10:16:20.413Z,7.72
2022-12-11T10:19:29.175Z,6.95
2022-12-11T10:22:32.739Z,7.37
2022-12-11T10:25:46.392Z,7.30
2022-12-11T10:28:49.538Z,7.62
2022-12-11T10:32:02.336Z,6.07
2022-12-11T10:35:06.528Z,7.87
2022-12-11T10:38:15.456Z,6.03
2022-12-11T10:41:21.105Z,5.90
2022-12-11T10:44:27.732Z,6.95
2022-12-11T10:47:30.255Z,7.40
2022-12-11T10:50:33.939Z,8.13
2022-12-11T10:53:36.541Z,6.13
2022-12-11T10:56:39.364Z,6.00
2022-12-11T10:59:47.266Z,7.65
2022-12-11T11:02:50.133Z,7.40
2022-12-11T11:06:23.035Z,6.82
2022-12-11T11:09:36.429Z,7.93
2022-12-11T11:12:43.218Z,7.75
2022-12-11T11:15:46.058Z,6.78
2022-12-11T11:18:54.592Z,8.02
2022-12-11T11:22:18.443Z,7.12
2022-12-11T11:25:23.644Z,7.50
2022-12-11T11:28:33.283Z,8.52
2022-12-11T11:31:36.166Z,7.53
2022-12-11T11:34:39.012Z,8.05
2022-12-11T11:37:46.247Z,8.93
2022-12-11T11:41:05.558Z,7.33
2022-12-11T11:44:12.656Z,8.25
2022-12-11T11:47:21.810Z,8.85
2022-12-11T11:50:33.090Z,9.07
2022-12-11T11:53:40.625Z,8.32
2022-12-11T11:56:43.922Z,9.73
2022-12-11T11:59:50.868Z,6.65
2022-12-11T12:03:15.844Z,6.87
2022-12-11T12:06:34.510Z,11.50
2022-12-11T12:09:49.691Z,6.80
2022-12-11T12:12:58.855Z,8.23
2022-12-11T12:16:02.154Z,5.57
2022-12-11T12:19:20.196Z,20.25
2022-12-11T12:22:28.593Z,50.67
2022-12-11T12:25:57.800Z,31.17
2022-12-11T12:29:16.592Z,30.07
2022-12-11T12:32:22.490Z,23.38
2022-12-11T12:36:07.206Z,12.37
2022-12-11T12:39:29.925Z,10.38
2022-12-11T12:42:37.859Z,18.48
2022-12-11T12:46:01.190Z,11.43
2022-12-11T12:49:04.326Z,7.78
2022-12-11T12:52:13.761Z,9.77
2022-12-11T12:55:23.637Z,9.48
2022-12-11T12:58:35.860Z,7.15
2022-12-11T13:01:38.805Z,6.70
2022-12-11T13:04:58.882Z,8.25
2022-12-11T13:08:03.734Z,7.20
2022-12-11T13:11:11.615Z,6.32
2022-12-11T13:14:14.026Z,24.33
2022-12-11T13:17:24.729Z,9.23
2022-12-11T13:20:30.186Z,7.28
2022-12-11T13:23:34.332Z,7.95
2022-12-11T13:26:37.121Z,11.50
2022-12-11T13:29:42.304Z,12.07
2022-12-11T13:33:07.909Z,10.00
2022-12-11T13:36:15.919Z,12.82
2022-12-11T13:39:28.209Z,11.25
2022-12-11T13:42:52.303Z,16.08
2022-12-11T13:45:57.616Z,9.18
2022-12-11T13:49:07.703Z,8.57
2022-12-11T13:52:21.686Z,9.38
2022-12-11T13:55:26.373Z,8.00
2022-12-11T13:58:30.026Z,8.48
2022-12-11T14:01:34.126Z,13.70
2022-12-11T14:04:38.257Z,11.00
2022-12-11T14:07:52.065Z,8.57
2022-12-11T14:10:55.154Z,10.32
2022-12-11T14:14:00.010Z,13.70
2022-12-11T14:17:03.124Z,6.90
2022-12-11T14:20:09.122Z,10.30
2022-12-11T14:23:20.976Z,17.58
2022-12-11T14:26:24.994Z,19.60
2022-12-11T14:29:32.878Z,20.08
2022-12-11T14:32:42.774Z,17.33
2022-12-11T14:35:46.201Z,18.27
2022-12-11T14:38:58.840Z,15.20
2022-12-11T14:42:11.046Z,19.70
2022-12-11T14:45:25.100Z,17.48
2022-12-11T14:48:37.220Z,10.40
2022-12-11T14:51:40.684Z,9.83
2022-12-11T14:54:47.369Z,14.85
2022-12-11T14:57:52.461Z,13.57
2022-12-11T15:01:07.684Z,17.60
2022-12-11T15:04:20.095Z,12.05
2022-12-11T15:07:23.705Z,18.57
2022-12-11T15:10:41.258Z,23.30
2022-12-11T15:14:03.267Z,29.15
2022-12-11T15:17:12.695Z,33.67
2022-12-11T15:20:29.642Z,17.58
2022-12-11T15:23:35.502Z,14.97
2022-12-11T15:26:48.314Z,19.62
2022-12-11T15:29:51.013Z,14.77
2022-12-11T15:33:09.248Z,31.08
2022-12-11T15:36:30.531Z,11.52
2022-12-11T15:39:33.497Z,11.27
2022-12-11T15:42:40.866Z,12.88
2022-12-11T15:45:43.930Z,11.95
2022-12-11T15:48:48.449Z,14.80
2022-12-11T15:51:51.741Z,11.02
2022-12-11T15:54:54.334Z,17.77
2022-12-11T15:57:59.957Z,20.75
2022-12-11T16:01:03.261Z,33.03
2022-12-11T16:04:08.360Z,19.48
2022-12-11T16:07:18.394Z,38.05
2022-12-11T16:10:21.913Z,17.60
2022-12-11T16:13:24.701Z,17.60
2022-12-11T16:16:28.739Z,15.40
2022-12-11T16:19:31.262Z,20.55
2022-12-11T16:22:36.827Z,46.47
2022-12-11T16:25:43.726Z,11.97
2022-12-11T16:28:46.803Z,19.87
2022-12-11T16:31:55.197Z,20.58
2022-12-11T16:35:02.446Z,21.48
2022-12-11T16:38:05.338Z,24.05
2022-12-11T16:41:10.108Z,25.37
2022-12-11T16:44:19.635Z,17.25
2022-12-11T16:47:27.372Z,16.33
2022-12-11T16:50:36.511Z,19.80
2022-12-11T16:53:39.307Z,24.80
2022-12-11T16:56:42.188Z,21.73
2022-12-11T16:59:45.110Z,18.92
2022-12-11T17:02:48.404Z,16.73
2022-12-11T17:05:51.486Z,14.80
2022-12-11T17:08:54.140Z,12.00
2022-12-11T17:11:57.079Z,17.70
2022-12-11T17:14:59.963Z,13.98
2022-12-11T17:18:02.764Z,17.98
2022-12-11T17:21:10.623Z,15.10
2022-12-11T17:24:13.738Z,13.98
2022-12-11T17:27:16.385Z,13.77
2022-12-11T17:30:21.646Z,14.70
2022-12-11T17:33:24.627Z,13.02
2022-12-11T17:36:27.952Z,13.30
2022-12-11T17:39:31.285Z,17.58
2022-12-11T17:42:34.341Z,14.17
2022-12-11T17:45:44.838Z,14.25
2022-12-11T17:48:48.572Z,14.90
2022-12-11T17:51:53.192Z,14.77
2022-12-11T17:54:56.383Z,11.80
2022-12-11T17:58:00.456Z,14.43
2022-12-11T18:01:09.061Z,14.32
2022-12-11T18:04:12.139Z,12.93
2022-12-11T18:07:14.948Z,13.30
2022-12-11T18:10:19.481Z,12.60
2022-12-11T18:13:23.169Z,15.03
2022-12-11T18:16:38.133Z,17.48
2022-12-11T18:19:45.892Z,16.10
2022-12-11T18:22:49.607Z,14.75
2022-12-11T18:25:52.340Z,16.02
2022-12-11T18:28:55.254Z,15.90
2022-12-11T18:31:58.044Z,14.32
2022-12-11T18:35:02.420Z,14.75
2022-12-11T18:38:05.325Z,17.30
2022-12-11T18:41:09.827Z,17.52
2022-12-11T18:44:12.729Z,17.40
2022-12-11T18:47:16.064Z,17.90
2022-12-11T18:50:19.763Z,16.33
2022-12-11T18:53:23.072Z,15.18
2022-12-11T18:56:25.915Z,15.30
2022-12-11T18:59:29.005Z,15.53
2022-12-11T19:02:32.093Z,12.93
2022-12-11T19:05:36.282Z,16.83
2022-12-11T19:08:39.206Z,15.52
2022-12-11T19:11:42.237Z,13.85
2022-12-11T19:14:44.996Z,14.43
2022-12-11T19:17:47.995Z,11.32
2022-12-11T19:20:57.730Z,14.73
2022-12-11T19:24:09.565Z,13.52
2022-12-11T19:27:13.845Z,15.50
2022-12-11T19:30:17.025Z,14.77
2022-12-11T19:33:21.864Z,13.82
2022-12-11T19:36:26.517Z,13.93
2022-12-11T19:39:29.213Z,14.38
2022-12-11T19:42:32.424Z,10.73
2022-12-11T19:45:35.716Z,16.60
2022-12-11T19:48:41.317Z,15.13
2022-12-11T19:51:44.032Z,10.93
2022-12-11T19:54:47.243Z,8.45
2022-12-11T19:57:52.099Z,11.23
2022-12-11T20:00:55.416Z,13.03
2022-12-11T20:04:00.482Z,11.23
2022-12-11T20:07:03.942Z,10.65
2022-12-11T20:10:07.666Z,11.27
2022-12-11T20:13:11.143Z,9.88
2022-12-11T20:16:15.608Z,11.57
2022-12-11T20:19:18.361Z,12.30
2022-12-11T20:22:21.480Z,10.95
2022-12-11T20:25:27.814Z,12.37
2022-12-11T20:28:30.910Z,12.88
2022-12-11T20:31:35.441Z,11.07
2022-12-11T20:34:38.642Z,12.20
2022-12-11T20:37:41.537Z,10.40
2022-12-11T20:40:46.856Z,10.73
2022-12-11T20:43:50.406Z,11.10
2022-12-11T20:46:53.736Z,12.03
2022-12-11T20:49:56.477Z,11.27
2022-12-11T20:52:59.580Z,12.18
2022-12-11T20:56:03.114Z,11.77
2022-12-11T20:59:06.847Z,13.05
2022-12-11T21:02:11.846Z,13.33
2022-12-11T21:05:15.040Z,11.73
2022-12-11T21:08:17.969Z,13.32
2022-12-11T21:11:20.902Z,14.70
2022-12-11T21:14:25.739Z,12.50
2022-12-11T21:17:28.644Z,10.90
2022-12-11T21:20:31.552Z,10.30
2022-12-11T21:23:34.717Z,11.52
2022-12-11T21:26:37.581Z,12.63
2022-12-11T21:29:40.478Z,16.10
2022-12-11T21:32:43.655Z,9.50
2022-12-11T21:35:54.312Z,15.23
2022-12-11T21:38:58.900Z,11.38
2022-12-11T21:42:01.742Z,13.27
2022-12-11T21:48:27.426Z,13.63
2022-12-11T21:51:37.766Z,14.20
2022-12-11T21:54:42.673Z,13.68
2022-12-11T21:57:45.331Z,14.25
2022-12-11T22:00:49.923Z,15.77
2022-12-11T22:03:53.402Z,15.37
2022-12-11T22:06:56.174Z,15.45
2022-12-11T22:09:58.952Z,12.27
2022-12-11T22:13:01.717Z,13.38
2022-12-11T22:16:04.908Z,14.77
2022-12-11T22:19:07.547Z,14.50
2022-12-11T22:22:11.792Z,19.05
2022-12-11T22:25:14.745Z,17.25
2022-12-11T22:28:17.910Z,13.70
2022-12-11T22:31:22.615Z,17.05
2022-12-11T22:34:25.523Z,15.93
2022-12-11T22:37:29.081Z,18.37
2022-12-11T22:40:32.275Z,14.30
2022-12-11T22:43:34.754Z,17.20
2022-12-11T22:46:37.625Z,17.75
2022-12-11T22:49:40.225Z,15.07
2022-12-11T22:52:45.345Z,17.45
2022-12-11T22:55:48.127Z,15.07
2022-12-11T22:58:51.035Z,16.05
2022-12-11T23:01:54.020Z,18.12
2022-12-11T23:04:57.018Z,15.57
2022-12-11T23:07:59.812Z,15.73
2022-12-11T23:11:09.272Z,16.85
2022-12-11T23:14:18.366Z,15.25
2022-12-11T23:17:21.163Z,14.45
2022-12-11T23:20:24.179Z,16.20
2022-12-11T23:23:27.041Z,16.25
2022-12-11T23:26:30.041Z,16.30
2022-12-11T23:29:32.883Z,15.75
2022-12-11T23:32:35.711Z,14.30
2022-12-11T23:35:38.561Z,20.03
2022-12-11T23:38:42.513Z,15.98
2022-12-11T23:41:45.818Z,15.30
2022-12-11T23:44:48.511Z,14.98
2022-12-11T23:47:51.377Z,10.38
2022-12-11T23:50:59.432Z,16.83
2022-12-11T23:54:02.469Z,14.80
2022-12-11T23:57:06.290Z,15.77
